Tuesday, October 23, 2018, 10:59 PM EDT
Back to Local

KMTP, Montauk Airport

Location: Montauk, NY, United States Lat: 41.067
Local Time: 10:59 PM EDT ( 2:59 GMT) Lon: -71.917
Time Zone: US/Eastern Elev: 6 ft

Show me the last for .
Show Decoded

2018-10-23 21:54 METAR KMTP 240154Z AUTO 29006KT 12/08 A2995 RMK AO1 SLP140 T01170078 =
2018-10-23 20:54 METAR KMTP 240054Z AUTO 28005KT 12/08 A2995 RMK AO1 PK WND 29029/0010 SLP140
                 P0006 T01170083 =
2018-10-23 19:54 METAR KMTP 232354Z AUTO 24003KT 12/09 A2991 RMK AO1 SLP128 T01220094 10167 20122
                 58002 =
2018-10-23 18:54 METAR KMTP 232254Z AUTO 24006KT 13/09 A2993 RMK AO1 SLP134 T01330094 =
2018-10-23 17:54 METAR KMTP 232154Z AUTO 24007KT 14/08 A2992 RMK AO1 SLP130 T01390078 =
2018-10-23 16:54 METAR KMTP 232054Z AUTO 22006G15KT 16/11 A2992 RMK AO1 SLP130 T01560106 56021 =
2018-10-23 15:54 METAR KMTP 231954Z AUTO 21008G16KT 16/11 A2992 RMK AO1 SLP132 T01610111 =
2018-10-23 14:54 METAR KMTP 231854Z AUTO 22009G15KT 17/11 A2995 RMK AO1 SLP140 T01670111 =
2018-10-23 13:54 METAR KMTP 231754Z AUTO 19007KT 140V240 14/11 A2998 RMK AO1 SLP152 T01440106
                 10161 20111 58037 =
2018-10-23 12:54 METAR KMTP 231654Z AUTO 20007G16KT 16/08 A3002 RMK AO1 SLP164 T01560083 =
2018-10-23 11:54 METAR KMTP 231554Z AUTO 16007KT 100V210 14/09 A3005 RMK AO1 SLP177 T01440094 =
2018-10-23 10:54 METAR KMTP 231454Z AUTO VRB05KT 14/08 A3009 RMK AO1 SLP189 T01390083 58011 =
2018-10-23 09:54 METAR KMTP 231354Z AUTO VRB05KT 14/07 A3010 RMK AO1 SLP194 T01390067 =
2018-10-23 08:54 METAR KMTP 231254Z AUTO VRB05KT 13/08 A3012 RMK AO1 SLP198 T01280083 =
2018-10-23 07:54 METAR KMTP 231154Z AUTO 11004KT 11/07 A3012 RMK AO1 SLP200 T01110067 10111 20061
                 58010 =
2018-10-23 06:54 METAR KMTP 231054Z AUTO 00000KT 07/06 A3013 RMK AO1 SLP202 T00720056 =
2018-10-23 05:54 METAR KMTP 230954Z AUTO 00000KT 07/06 A3015 RMK AO1 SLP209 T00670056 =
2018-10-23 04:54 METAR KMTP 230854Z AUTO 00000KT 08/06 A3015 RMK AO1 SLP210 T00780061 58014 =
2018-10-23 03:54 METAR KMTP 230754Z AUTO 00000KT 09/06 A3016 RMK AO1 SLP214 T00940061 =
2018-10-23 02:54 METAR KMTP 230654Z AUTO 00000KT 09/06 A3018 RMK AO1 SLP220 T00940056 =
2018-10-23 01:54 METAR KMTP 230554Z AUTO 00000KT 06/05 A3019 RMK AO1 SLP223 T00610050 10100 20039
                 57006 =
2018-10-23 00:54 METAR KMTP 230454Z AUTO 00000KT 04/03 A3020 RMK AO1 SLP227 T00440033 401000044 =
2018-10-22 23:54 METAR KMTP 230354Z AUTO 00000KT 06/04 A3020 RMK AO1 SLP226 T00610044 =

Support USWX by starting your Amazon purchase here.